• Join FlightAware (Why Join?)
  • Login
  • US Flag 
01:47AM EST


 

Airport Tracker/Info


-or-


 

Live Flight TrackerFlight Track Log ✈ SWA3228 ✈ 23-Apr-2013 ✈ KMDW - KCLE

Flight Track Log - Related Links

Times and Time Zones

All times are in EDT time to prevent confusion due to time zone crossing. See the SWA3228 flight status page for this flight to view local times or setup timezone preferences in your user account.

Time Position Orientation Groundspeed Altitude Reporting Facility
EDT Latitude Longitude Course Direction KTS MPH feet Rate Location/Type
12:48PM 41.7667 -87.7667 346° North 156 180 1,700  Level Chicago TRACON
12:49PM 41.8167 -87.7833 346° North 242 278 3,100 1,461 Climbing Chicago TRACON
12:51PM 41.8156 -87.6464 91° East 273 314 5,400 2,766 Climbing Chicago Center
12:52PM 41.8050 -87.5400 98° East 288 331 10,200 3,435 Climbing Chicago Center
12:53PM 41.7947 -87.4189 96° East 324 373 12,500 3,242 Climbing Chicago Center
12:54PM 41.7800 -87.2492 97° East 373 429 16,900 3,268 Climbing Chicago Center
12:55PM 41.7667 -87.1006 97° East 393 452 19,200 2,390 Climbing Chicago Center
12:56PM 41.7628 -86.9331 92° East 444 511 21,800 2,661 Climbing Chicago Center
12:57PM 41.7667 -86.7717 88° East 443 510 24,700 2,177 Climbing Chicago Center
12:58PM 41.7661 -86.5933 90° East 474 545 26,300 1,984 Climbing Chicago Center
12:59PM 41.7694 -86.4147 89° East 485 558 28,800 2,177 Climbing Chicago Center
01:00PM 41.7728 -86.2017 89° East 478 550 30,800 2,049 Climbing Chicago Center
01:01PM 41.7967 -86.0211 80° East 490 564 33,000 1,073 Climbing Chicago Center
01:02PM 41.8181 -85.8347 81° East 503 579 33,000  Level Chicago Center
01:03PM 41.8386 -85.6308 82° East 541 623 33,000  Level Chicago Center
01:04PM 41.8597 -85.4308 82° East 534 615 33,000  Level Chicago Center
01:05PM 41.8811 -85.2636 80° East 534 615 33,000  Level Cleveland Center
01:06PM 41.8992 -85.0725 83° East 534 615 33,000  Level Cleveland Center
01:07PM 41.9172 -84.8756 83° East 534 615 33,000  Level Cleveland Center
01:08PM 41.9347 -84.6783 83° East 534 615 33,000  Level Cleveland Center
01:09PM 41.9561 -84.4842 82° East 534 615 33,000  Level Cleveland Center
01:10PM 41.9717 -84.2672 84° East 534 615 33,000  Level Cleveland Center
01:11PM 41.9922 -84.0728 82° East 534 615 33,000 -1,250 Level Cleveland Center
01:12PM 42.0086 -83.8753 84° East 534 615 30,500 -2,900 Descending Cleveland Center
01:13PM 42.0264 -83.6833 83° East 529 609 27,200 -3,200 Descending Cleveland Center
01:14PM 42.0417 -83.4994 84° East 509 586 24,100 -3,100 Descending Cleveland Center
01:15PM 42.0356 -83.3314 93° East 474 545 21,000 -3,050 Descending Cleveland Center
01:16PM 42.0183 -83.1714 98° East 449 517 18,000 -2,400 Descending Cleveland Center
01:17PM 42.0031 -83.0142 97° East 425 489 16,200 -1,350 Descending Cleveland Center
01:18PM 41.9892 -82.8711 97° East 425 489 15,300 -950 Descending Cleveland Center
01:19PM 41.9736 -82.7142 98° East 430 495 14,300 -700 Descending Cleveland Center
01:20PM 41.9556 -82.5572 99° East 425 489 13,900 -305 Descending Cleveland Center
01:21PM 41.9139 -82.4192 112° Southeast 386 444 13,700 -1,483 Descending Cleveland Center
01:21PM 41.8922 -82.3461 112° Southeast 388 447 11,700 -3,290 Descending Cleveland Center
01:22PM 41.8744 -82.2869 112° Southeast 395 455 10,300 -1,600 Descending Cleveland Center
01:22PM 41.8503 -82.2167 115° Southeast 360 414 10,100 -200 Descending Cleveland Center
01:23PM 41.8344 -82.1661 113° Southeast 375 432 10,100  Level Cleveland Center
01:23PM 41.7975 -82.1178 136° Southeast 364 419 10,100 -100 Level Cleveland Center
01:24PM 41.7586 -82.0722 139° Southeast 358 412 10,000 -76 Descending Cleveland Center
01:25PM 41.6906 -82.0097 146° Southeast 365 420 10,000  Level Cleveland Center
01:25PM 41.6781 -81.9956 140° Southeast 358 412 10,000 -375 Level Cleveland Center
01:25PM 41.6389 -81.9583 145° Southeast 288 331 9,700 -1,000 Descending Cleveland Center
01:26PM 41.6144 -81.9272 136° Southeast 319 367 9,000 -1,791 Descending Cleveland Center
01:27PM 41.5756 -81.8683 131° Southeast 281 323 7,700 -1,800 Descending Cleveland Center
01:27PM 41.5653 -81.8431 119° Southeast 283 326 7,200 -1,672 Descending Cleveland Center
01:28PM 41.5681 -81.7681 87° East 276 318 6,000 -1,700 Descending Cleveland Center
01:28PM 41.5622 -81.7292 101° East 259 298 5,500 -1,667 Descending Cleveland Center
01:28PM 41.5397 -81.7011 137° Southeast 259 298 4,500 -1,900 Descending Cleveland Center
01:29PM 41.5064 -81.7006 179° South 201 231 3,600 -1,475 Descending Cleveland Center
01:30PM 41.4767 -81.7500 231° Southwest 253 291 3,000 -600 Descending Cleveland Center
01:30PM 41.4619 -81.7689 224° Southwest 183 211 3,000 -222 Level Cleveland Center
01:30PM 41.4511 -81.7908 237° Southwest 149 171 2,800 -1,074 Descending Cleveland Center
01:32PM 41.4258 -81.8319 231° Southwest 121 139 1,300 -1,343 Descending Cleveland Center
01:34PM 41.4000 -81.8500 153° Southeast  Level FlightAware Approximate